Time;durP1;ratioP1;P1;durP2;ratioP2;P2;SDS_P1;SDS_P2;PMS_P1;PMS_P2;Temp;Humidity;BMP_temperature;BMP_pressure;BME280_temperature;BME280_humidity;BME280_pressure;Samples;Min_cycle;Max_cycle;Signal;HPM_P1;HPM_P2
2022/04/19 00:01:07;;;;;;;7.60;5.28;;;;;;;8.29;41.97;98779.19;5125955;28;20066;-70
2022/04/19 00:03:38;;;;;;;5.97;3.75;;;;;;;8.33;41.83;98778.09;5125901;28;20291;-69
2022/04/19 00:06:07;;;;;;;6.05;4.38;;;;;;;8.38;41.71;98774.34;5125758;28;20111;-69
2022/04/19 00:08:38;;;;;;;6.53;3.80;;;;;;;8.37;41.71;98770.00;5125742;28;20043;-70
2022/04/19 00:11:08;;;;;;;9.13;5.25;;;;;;;8.42;41.57;98771.44;5125830;28;20303;-70
2022/04/19 00:13:37;;;;;;;5.78;4.10;;;;;;;8.39;41.73;98760.22;5125812;28;20035;-70
2022/04/19 00:16:08;;;;;;;5.35;4.25;;;;;;;8.37;41.78;98768.22;5126067;28;20040;-70
2022/04/19 00:18:38;;;;;;;6.80;3.63;;;;;;;8.37;41.92;98764.72;5125779;28;20074;-70
2022/04/19 00:21:08;;;;;;;6.10;3.58;;;;;;;8.38;41.75;98761.16;5125798;28;20035;-70
2022/04/19 00:23:40;;;;;;;6.72;4.20;;;;;;;8.36;41.80;98763.88;5126012;28;20195;-70
2022/04/19 00:26:09;;;;;;;5.75;3.60;;;;;;;8.35;42.00;98759.53;5126020;28;20046;-69
2022/04/19 00:28:41;;;;;;;6.82;4.18;;;;;;;8.35;41.88;98749.81;5125858;28;20050;-69
2022/04/19 00:31:09;;;;;;;6.55;4.50;;;;;;;8.33;41.74;98750.84;5125517;28;20055;-69
2022/04/19 00:33:44;;;;;;;7.07;4.57;;;;;;;8.30;41.71;98753.66;5125918;28;20062;-69
2022/04/19 00:36:15;;;;;;;5.18;4.15;;;;;;;8.26;41.42;98750.31;5125586;28;20035;-69
2022/04/19 00:38:47;;;;;;;6.35;4.00;;;;;;;8.24;41.69;98746.06;5125606;28;20070;-69
2022/04/19 00:41:17;;;;;;;5.35;4.15;;;;;;;8.23;42.02;98749.66;5125809;28;20322;-70
2022/04/19 00:43:46;;;;;;;5.22;3.80;;;;;;;8.24;42.18;98744.28;5126330;28;20040;-69
2022/04/19 00:46:16;;;;;;;5.80;3.72;;;;;;;8.18;42.37;98747.25;5129579;27;20059;-70
2022/04/19 00:48:46;;;;;;;4.97;3.72;;;;;;;7.85;42.54;98698.97;5129712;28;20047;-70
2022/04/19 00:51:17;;;;;;;5.60;3.50;;;;;;;8.06;42.80;98734.72;5129693;28;20097;-70
2022/04/19 00:53:48;;;;;;;5.13;4.03;;;;;;;8.05;42.51;98737.47;5129371;28;20074;-70
2022/04/19 00:56:17;;;;;;;5.75;3.80;;;;;;;8.03;42.54;98730.47;5128702;28;20039;-70
2022/04/19 00:58:47;;;;;;;4.85;3.72;;;;;;;8.04;42.51;98723.41;5129306;28;20062;-70
2022/04/19 01:01:18;;;;;;;6.85;4.45;;;;;;;8.06;42.06;98736.53;5129093;28;20051;-70
2022/04/19 01:03:48;;;;;;;6.28;3.65;;;;;;;8.03;42.41;98716.44;5129181;28;20050;-70
2022/04/19 01:06:18;;;;;;;4.63;3.65;;;;;;;8.05;42.69;98727.75;5129167;28;20189;-69
2022/04/19 01:08:49;;;;;;;5.95;3.28;;;;;;;8.06;43.00;98716.25;5129077;28;20046;-70
2022/04/19 01:14:08;;;;;;;4.82;3.70;;;;;;;8.00;43.36;98713.97;5129244;28;20140;-69
2022/04/19 01:16:41;;;;;;;6.50;4.18;;;;;;;7.94;43.53;98716.94;5128952;28;20065;-70
2022/04/19 01:19:15;;;;;;;6.72;4.40;;;;;;;7.10;43.59;98586.97;5128866;27;20092;-69
2022/04/19 01:21:49;;;;;;;4.50;3.45;;;;;;;7.88;43.76;98709.34;5129196;28;20040;-69
2022/04/19 01:24:23;;;;;;;5.53;3.87;;;;;;;7.87;43.64;98703.22;5129145;28;20040;-69
2022/04/19 01:26:57;;;;;;;5.18;3.78;;;;;;;7.85;43.67;98702.44;5128712;28;20051;-69
2022/04/19 01:29:30;;;;;;;5.32;3.67;;;;;;;7.54;43.73;98657.56;5128748;28;20085;-69
2022/04/19 01:32:04;;;;;;;5.18;3.50;;;;;;;7.87;43.68;98703.22;5128730;28;20173;-70
2022/04/19 01:34:36;;;;;;;4.63;3.97;;;;;;;7.89;43.66;98698.72;5128638;28;20241;-69
2022/04/19 01:37:10;;;;;;;5.70;4.00;;;;;;;7.89;43.16;98698.72;5128894;28;20344;-70
2022/04/19 01:42:33;;;;;;;5.55;4.30;;;;;;;8.04;42.33;98702.31;5128448;28;20088;-70
2022/04/19 01:45:07;;;;;;;5.38;3.90;;;;;;;8.09;42.31;98700.25;5128702;28;20043;-70
2022/04/19 01:47:41;;;;;;;7.03;3.93;;;;;;;8.07;42.71;98702.13;5128649;28;20092;-70
2022/04/19 01:50:14;;;;;;;6.72;3.55;;;;;;;8.09;42.97;98702.91;5128239;28;20044;-70
2022/04/19 01:52:49;;;;;;;7.75;3.63;;;;;;;8.06;42.99;98703.06;5128514;28;20040;-69
2022/04/19 01:55:21;;;;;;;;;;;;;;;8.00;43.03;98706.03;5128378;28;20047;-69
2022/04/19 01:57:56;;;;;;;4.40;3.53;;;;;;;8.05;43.11;98704.00;5128234;27;20168;-70
2022/04/19 02:00:29;;;;;;;5.55;3.20;;;;;;;8.09;43.38;98708.19;5128269;28;20349;-71
2022/04/19 02:03:03;;;;;;;4.65;3.33;;;;;;;8.12;43.51;98715.91;5128146;28;20039;-69
2022/04/19 02:05:35;;;;;;;4.43;3.55;;;;;;;7.86;43.44;98661.94;5128039;28;20040;-69
2022/04/19 02:08:09;;;;;;;5.13;3.53;;;;;;;8.15;43.41;98704.34;5128229;28;20040;-69
2022/04/19 02:10:41;;;;;;;5.38;4.15;;;;;;;8.19;43.36;98703.22;5127855;28;20088;-70
2022/04/19 02:13:14;;;;;;;5.40;3.72;;;;;;;8.22;43.45;98703.06;5127882;28;20039;-70
2022/04/19 02:15:46;;;;;;;5.45;3.70;;;;;;;8.23;43.37;98700.34;5127796;28;20084;-69
2022/04/19 02:18:18;;;;;;;5.07;3.95;;;;;;;8.23;43.44;98700.34;5127806;28;20040;-70
2022/04/19 02:20:50;;;;;;;5.97;3.67;;;;;;;8.27;43.39;98696.59;5127681;28;20052;-70
2022/04/19 02:23:25;;;;;;;4.65;3.78;;;;;;;8.27;43.62;98691.31;5127881;28;20043;-69
2022/04/19 02:25:57;;;;;;;6.22;3.90;;;;;;;8.26;43.72;98691.41;5127975;28;20292;-70
2022/04/19 02:28:29;;;;;;;5.25;3.75;;;;;;;8.25;44.10;98700.25;5127887;28;20287;-70
2022/04/19 02:31:01;;;;;;;5.60;4.13;;;;;;;8.30;44.02;98685.00;5126998;28;20043;-69
2022/04/19 02:33:33;;;;;;;6.40;4.13;;;;;;;8.17;44.03;98652.31;5127765;28;20081;-69
2022/04/19 02:36:06;;;;;;;4.85;4.00;;;;;;;8.32;44.19;98683.13;5127763;28;20081;-69
2022/04/19 02:38:39;;;;;;;6.72;5.50;;;;;;;8.29;44.50;98675.38;5127766;27;20333;-70
2022/04/19 02:41:11;;;;;;;4.47;4.00;;;;;;;8.30;44.15;98682.38;5127616;28;20043;-70
2022/04/19 02:43:44;;;;;;;6.63;3.92;;;;;;;8.33;44.18;98679.56;5127182;28;20088;-70
2022/04/19 02:46:16;;;;;;;5.30;4.03;;;;;;;8.33;44.17;98672.47;5126695;28;20238;-69
2022/04/19 02:48:46;;;;;;;6.38;4.13;;;;;;;7.97;44.11;98613.84;5127208;28;20055;-70
2022/04/19 02:51:16;;;;;;;6.03;4.22;;;;;;;8.23;44.19;98668.66;5126404;28;20051;-70
2022/04/19 02:53:48;;;;;;;5.65;3.85;;;;;;;8.16;43.99;98647.97;5127323;28;20039;-69
2022/04/19 02:56:17;;;;;;;6.00;4.15;;;;;;;8.25;43.97;98660.66;5127037;27;20207;-69
2022/04/19 02:58:47;;;;;;;5.55;3.97;;;;;;;8.30;43.82;98662.09;5126966;28;20051;-69
2022/04/19 03:01:18;;;;;;;5.32;3.15;;;;;;;8.07;43.66;98616.81;5126877;28;20059;-70
2022/04/19 03:03:47;;;;;;;4.57;3.55;;;;;;;8.08;43.68;98639.63;5126031;28;20041;-69
2022/04/19 03:06:18;;;;;;;4.47;3.38;;;;;;;8.37;43.52;98657.31;5126179;28;20255;-69
2022/04/19 03:08:50;;;;;;;6.85;4.13;;;;;;;8.38;43.54;98663.44;5127031;28;20039;-70
2022/04/19 03:11:18;;;;;;;5.57;3.72;;;;;;;7.20;43.52;98460.81;5126592;27;20043;-70
2022/04/19 03:13:48;;;;;;;5.95;4.00;;;;;;;7.95;43.54;98582.28;5126623;28;20326;-69
2022/04/19 03:16:19;;;;;;;5.63;4.30;;;;;;;8.09;43.62;98614.94;5126615;28;20043;-70
2022/04/19 03:18:49;;;;;;;4.63;3.67;;;;;;;8.35;43.64;98656.56;5125822;28;20039;-70
2022/04/19 03:21:19;;;;;;;4.57;3.85;;;;;;;8.32;43.67;98654.94;5126534;28;20039;-70
2022/04/19 03:29:30;;;;;;;5.20;4.38;;;;;;;8.23;43.83;98665.16;5126272;28;20089;-70
2022/04/19 03:32:03;;;;;;;5.80;3.83;;;;;;;8.24;43.80;98657.16;5125616;28;20097;-69
2022/04/19 03:34:35;;;;;;;5.03;3.30;;;;;;;8.00;43.83;98617.16;5126324;28;20039;-70
2022/04/19 03:37:07;;;;;;;4.88;3.92;;;;;;;8.25;43.82;98663.28;5126509;28;20337;-69
2022/04/19 03:39:41;;;;;;;4.95;3.40;;;;;;;8.25;43.75;98653.59;5126249;28;20047;-69
2022/04/19 03:42:13;;;;;;;4.80;3.90;;;;;;;8.24;43.73;98651.88;5126475;28;20291;-69
2022/04/19 03:44:45;;;;;;;4.68;3.72;;;;;;;8.25;43.54;98666.78;5126328;28;20221;-69
2022/04/19 03:47:17;;;;;;;4.93;3.63;;;;;;;8.23;43.73;98638.78;5126106;28;20088;-69
2022/04/19 03:49:50;;;;;;;4.20;3.58;;;;;;;8.20;43.65;98655.63;5125997;28;20044;-70
2022/04/19 03:52:22;;;;;;;5.40;3.75;;;;;;;8.21;43.79;98651.22;5126079;28;20062;-69
2022/04/19 03:54:55;;;;;;;6.30;3.83;;;;;;;7.99;43.77;98626.03;5125971;28;20089;-69
2022/04/19 03:57:27;;;;;;;4.50;3.40;;;;;;;8.17;43.88;98647.03;5125944;28;20043;-70
2022/04/19 04:00:00;;;;;;;6.03;3.30;;;;;;;8.18;43.83;98646.09;5126014;28;20054;-70
2022/04/19 04:02:32;;;;;;;4.63;3.25;;;;;;;7.91;43.77;98596.59;5125814;28;20056;-69
2022/04/19 04:05:05;;;;;;;4.60;3.45;;;;;;;8.16;43.89;98653.25;5125236;28;20054;-69
2022/04/19 04:07:38;;;;;;;6.35;4.13;;;;;;;8.12;44.05;98651.72;5125096;28;20043;-69
2022/04/19 04:10:12;;;;;;;5.68;3.72;;;;;;;7.74;44.54;98601.94;5125793;28;20039;-70
2022/04/19 04:12:44;;;;;;;5.38;3.80;;;;;;;8.01;44.61;98652.31;5125037;28;20295;-70
2022/04/19 04:15:16;;;;;;;5.30;4.10;;;;;;;7.99;44.82;98646.28;5126027;28;20039;-70
2022/04/19 04:17:48;;;;;;;5.28;3.40;;;;;;;7.81;44.95;98611.22;5126683;28;20040;-69
2022/04/19 04:20:21;;;;;;;5.47;3.75;;;;;;;7.76;45.58;98605.34;5130262;28;20289;-70
2022/04/19 04:22:53;;;;;;;6.30;4.03;;;;;;;7.98;45.29;98647.22;5130087;28;20291;-70
2022/04/19 04:25:26;;;;;;;7.70;4.57;;;;;;;7.96;45.35;98657.00;5129957;28;20043;-70
2022/04/19 04:27:58;;;;;;;6.22;3.92;;;;;;;7.86;45.62;98651.41;5130143;28;20081;-70
2022/04/19 04:30:31;;;;;;;5.72;4.05;;;;;;;7.83;45.77;98648.06;5129894;28;20048;-69
2022/04/19 04:33:03;;;;;;;6.53;4.60;;;;;;;7.85;45.47;98652.31;5129713;28;20245;-69
2022/04/19 04:35:35;;;;;;;5.95;3.80;;;;;;;7.89;45.49;98642.47;5130058;28;20341;-69
2022/04/19 04:38:07;;;;;;;7.13;4.13;;;;;;;7.92;45.28;98640.50;5129985;27;20047;-69
2022/04/19 04:40:41;;;;;;;6.22;4.05;;;;;;;7.94;45.57;98646.53;5129930;27;20115;-70
2022/04/19 04:43:13;;;;;;;5.60;4.10;;;;;;;7.92;45.45;98643.13;5129643;28;20039;-70
2022/04/19 04:49:35;;;;;;;5.57;3.50;;;;;;;7.70;45.39;98598.63;5129764;28;20039;-69
2022/04/19 04:51:27;;;;;;;5.57;3.63;;;;;;;7.96;45.44;98647.31;5129631;28;20089;-70
2022/04/19 04:53:58;;;;;;;6.00;4.15;;;;;;;7.99;45.38;98644.50;5129395;28;20039;-69
2022/04/19 04:56:29;;;;;;;5.53;3.97;;;;;;;7.78;45.47;98613.19;5129592;28;20081;-69
2022/04/19 04:58:58;;;;;;;6.03;4.30;;;;;;;8.04;45.32;98641.59;5128520;28;20106;-70
2022/04/19 05:01:29;;;;;;;8.20;3.50;;;;;;;8.07;45.36;98644.06;5129187;28;20381;-70
2022/04/19 05:03:59;;;;;;;7.47;4.30;;;;;;;8.08;45.31;98647.56;5129506;27;20040;-70
2022/04/19 05:06:29;;;;;;;5.55;3.92;;;;;;;8.04;45.66;98657.44;5129698;27;20058;-70
2022/04/19 05:08:59;;;;;;;6.05;3.78;;;;;;;8.01;45.61;98650.53;5129121;28;20040;-70
2022/04/19 05:11:31;;;;;;;6.55;4.00;;;;;;;8.01;45.63;98652.31;5129192;28;20043;-70
2022/04/19 05:14:00;;;;;;;7.53;4.72;;;;;;;8.06;45.86;98649.44;5128172;28;20241;-70
2022/04/19 05:16:30;;;;;;;8.63;5.07;;;;;;;7.96;45.91;98646.47;5128871;28;20102;-70
2022/04/19 05:19:00;;;;;;;5.72;4.60;;;;;;;8.02;45.91;98652.25;5128952;28;20103;-69
2022/04/19 05:21:30;;;;;;;6.53;5.10;;;;;;;7.19;46.04;98543.47;5128862;28;20215;-69
2022/04/19 05:24:01;;;;;;;6.07;4.07;;;;;;;7.90;46.37;98650.28;5128796;28;20039;-70
2022/04/19 05:26:32;;;;;;;9.30;5.53;;;;;;;7.94;46.05;98653.59;5128670;28;20039;-70
2022/04/19 05:29:01;;;;;;;16.30;5.78;;;;;;;7.92;46.46;98651.06;5128352;28;20103;-70
2022/04/19 05:31:31;;;;;;;8.73;5.28;;;;;;;7.91;46.57;98653.78;5128565;28;20243;-69
2022/04/19 05:34:02;;;;;;;6.63;3.83;;;;;;;7.89;46.73;98661.78;5128805;28;20040;-70
2022/04/19 05:36:32;;;;;;;7.25;4.50;;;;;;;7.93;46.65;98657.19;5128761;28;20070;-69
2022/04/19 05:39:02;;;;;;;5.80;4.13;;;;;;;7.69;46.84;98611.91;5128774;28;20280;-70
2022/04/19 05:41:35;;;;;;;6.70;4.63;;;;;;;7.95;48.10;98656.16;5127699;28;20047;-70
2022/04/19 05:44:03;;;;;;;5.32;4.35;;;;;;;7.90;47.27;98650.28;5128599;28;20056;-70
2022/04/19 05:46:36;;;;;;;7.65;5.03;;;;;;;7.91;47.72;98657.25;5127479;28;20110;-69
2022/04/19 05:49:04;;;;;;;7.93;5.35;;;;;;;7.88;47.48;98646.03;5128498;28;20098;-70
2022/04/19 05:51:33;;;;;;;10.85;5.18;;;;;;;7.88;47.34;98646.03;5128514;28;20103;-70
2022/04/19 05:54:04;;;;;;;7.10;5.10;;;;;;;7.81;47.81;98644.66;5128254;27;20047;-69
2022/04/19 05:56:35;;;;;;;4.60;4.15;;;;;;;7.86;47.78;98640.84;5128210;28;20047;-69
2022/04/19 05:59:04;;;;;;;6.10;4.43;;;;;;;7.90;47.42;98639.72;5128047;28;20063;-69
2022/04/19 06:07:10;;;;;;;6.80;4.28;;;;;;;7.95;47.28;98640.34;5128338;28;20089;-69
2022/04/19 06:09:43;;;;;;;7.13;4.82;;;;;;;7.69;47.23;98589.03;5128458;28;20097;-69
2022/04/19 06:12:16;;;;;;;6.00;4.40;;;;;;;8.00;47.18;98645.34;5128232;28;20039;-69
2022/04/19 06:14:49;;;;;;;7.50;4.18;;;;;;;8.00;47.17;98642.72;5128047;28;20084;-69
2022/04/19 06:17:22;;;;;;;6.55;4.70;;;;;;;7.91;47.63;98638.78;5128049;28;20047;-69
2022/04/19 06:19:54;;;;;;;8.35;4.75;;;;;;;6.66;47.54;98481.31;5127821;28;20357;-70
2022/04/19 06:22:27;;;;;;;5.00;4.20;;;;;;;7.86;47.60;98635.56;5127063;28;20324;-69
2022/04/19 06:25:01;;;;;;;6.97;4.93;;;;;;;7.92;47.40;98643.13;5127838;28;20092;-69
2022/04/19 06:27:34;;;;;;;7.00;4.47;;;;;;;7.89;47.76;98648.59;5127860;27;20288;-70
2022/04/19 06:30:08;;;;;;;6.40;3.95;;;;;;;7.57;48.29;98602.03;5127514;28;20040;-69
2022/04/19 06:32:40;;;;;;;7.80;4.47;;;;;;;7.88;48.32;98643.41;5126703;28;20050;-70
2022/04/19 06:35:12;;;;;;;5.28;3.53;;;;;;;7.90;48.30;98642.38;5127277;28;20039;-70
2022/04/19 06:37:44;;;;;;;5.55;4.20;;;;;;;7.97;48.17;98642.88;5127582;28;20040;-70
2022/04/19 06:40:17;;;;;;;6.70;4.88;;;;;;;7.61;48.35;98588.59;5127499;27;20345;-70
2022/04/19 06:42:50;;;;;;;8.60;4.43;;;;;;;7.99;48.48;98643.66;5126196;28;20039;-70
2022/04/19 06:45:23;;;;;;;6.88;4.53;;;;;;;8.00;48.84;98642.72;5127430;28;20039;-70
2022/04/19 06:47:58;;;;;;;5.50;4.15;;;;;;;7.92;49.19;98647.56;5127389;28;20039;-70
2022/04/19 06:50:30;;;;;;;6.32;4.10;;;;;;;7.56;48.49;98606.44;5127392;28;20039;-69
2022/04/19 06:53:03;;;;;;;7.50;4.07;;;;;;;7.67;48.82;98648.91;5127251;28;20040;-69
2022/04/19 06:55:35;;;;;;;7.35;3.92;;;;;;;7.57;50.04;98652.13;5126927;28;20096;-70
2022/04/19 06:58:09;;;;;;;7.18;5.13;;;;;;;7.28;50.08;98600.94;5126342;28;20092;-70
2022/04/19 07:00:41;;;;;;;4.43;3.80;;;;;;;7.63;50.61;98646.53;5126718;28;20088;-70
2022/04/19 07:03:14;;;;;;;7.75;4.63;;;;;;;7.67;51.28;98653.34;5127151;28;20140;-70
2022/04/19 07:05:46;;;;;;;5.35;4.22;;;;;;;7.67;50.63;98648.06;5126264;28;20092;-70
2022/04/19 07:08:18;;;;;;;6.93;4.53;;;;;;;6.21;50.68;98424.03;5126059;28;20051;-70
2022/04/19 07:10:51;;;;;;;4.93;3.97;;;;;;;7.26;50.39;98601.03;5126843;28;20088;-70
2022/04/19 07:13:24;;;;;;;4.55;3.63;;;;;;;7.39;51.28;98646.06;5126453;28;20058;-69
2022/04/19 07:15:57;;;;;;;5.60;4.23;;;;;;;7.33;51.69;98646.38;5126504;28;20051;-69
2022/04/19 07:18:29;;;;;;;6.18;4.53;;;;;;;7.33;51.87;98647.25;5126372;28;20043;-70
2022/04/19 07:26:41;;;;;;;5.90;5.22;;;;;;;7.31;53.31;98649.06;5125312;28;20097;-70
2022/04/19 07:29:14;;;;;;;5.63;4.05;;;;;;;7.00;53.96;98607.69;5125872;28;20043;-70
2022/04/19 07:31:43;;;;;;;5.22;4.00;;;;;;;6.79;53.32;98560.50;5126202;28;20051;-70
2022/04/19 07:34:13;;;;;;;6.65;4.47;;;;;;;6.28;54.51;98528.03;5126021;28;20043;-70
2022/04/19 07:36:42;;;;;;;5.90;5.30;;;;;;;7.18;54.72;98653.28;5125218;28;20036;-70
2022/04/19 07:39:14;;;;;;;7.13;4.63;;;;;;;7.22;55.16;98648.72;5126044;28;20039;-70
2022/04/19 07:41:46;;;;;;;5.82;4.75;;;;;;;7.34;54.12;98645.47;5126003;28;20039;-70
2022/04/19 07:44:20;;;;;;;6.18;4.82;;;;;;;7.44;54.86;98641.41;5125779;28;20039;-70
2022/04/19 07:46:50;;;;;;;6.47;4.60;;;;;;;7.50;54.98;98642.84;5125961;28;20177;-70
2022/04/19 07:49:19;;;;;;;6.10;4.30;;;;;;;7.53;54.14;98642.69;5126065;28;20100;-70
2022/04/19 07:51:49;;;;;;;7.13;4.38;;;;;;;7.60;54.36;98644.91;5126087;27;20039;-70
2022/04/19 07:54:19;;;;;;;6.40;4.97;;;;;;;7.67;54.39;98645.44;5125406;28;20039;-70
2022/04/19 07:56:49;;;;;;;5.97;4.20;;;;;;;7.54;55.09;98645.25;5126039;28;20230;-70
2022/04/19 07:59:21;;;;;;;5.25;4.68;;;;;;;7.25;55.58;98594.06;5125780;28;20043;-70
2022/04/19 08:01:50;;;;;;;8.23;4.55;;;;;;;7.47;54.47;98638.59;5125472;28;20055;-70
2022/04/19 08:04:21;;;;;;;7.07;4.60;;;;;;;7.28;55.75;98643.13;5125353;28;20042;-70
2022/04/19 08:06:51;;;;;;;6.15;4.38;;;;;;;6.88;55.22;98578.50;5125784;28;20230;-70
2022/04/19 08:09:21;;;;;;;9.80;5.10;;;;;;;7.29;54.98;98644.81;5126028;28;20040;-70
2022/04/19 08:11:52;;;;;;;7.30;4.10;;;;;;;7.35;55.59;98639.25;5125610;28;20040;-70
2022/04/19 08:14:22;;;;;;;6.97;3.97;;;;;;;7.37;55.76;98627.69;5125633;28;20047;-70
2022/04/19 08:16:51;;;;;;;6.30;4.65;;;;;;;7.19;55.45;98581.19;5125747;28;20304;-70
2022/04/19 08:19:22;;;;;;;6.88;4.22;;;;;;;7.50;55.23;98629.66;5124744;28;20039;-70
2022/04/19 08:21:52;;;;;;;8.63;5.70;;;;;;;7.46;55.49;98639.53;5125848;28;20111;-70
2022/04/19 08:24:22;;;;;;;7.28;4.55;;;;;;;7.49;56.63;98623.53;5125726;28;20039;-70
2022/04/19 08:26:52;;;;;;;6.65;4.63;;;;;;;7.29;55.91;98576.28;5125765;28;20288;-70
2022/04/19 08:29:24;;;;;;;13.98;6.03;;;;;;;7.65;56.79;98624.41;5124998;28;20043;-70
2022/04/19 08:31:53;;;;;;;7.60;5.22;;;;;;;7.73;55.94;98625.78;5125588;28;20047;-70
2022/04/19 08:34:23;;;;;;;5.75;5.05;;;;;;;7.26;56.71;98544.81;5124911;28;20048;-70
2022/04/19 08:36:54;;;;;;;5.50;4.03;;;;;;;7.75;55.95;98627.41;5125627;28;20040;-69
2022/04/19 08:39:24;;;;;;;6.28;4.78;;;;;;;7.71;56.30;98617.94;5124957;28;20040;-70
2022/04/19 08:41:55;;;;;;;9.60;5.63;;;;;;;7.59;56.45;98619.47;5125720;28;20044;-70
2022/04/19 08:44:26;;;;;;;5.55;4.28;;;;;;;7.48;57.72;98613.94;5125471;28;20035;-70
2022/04/19 08:46:56;;;;;;;8.07;5.72;;;;;;;7.57;56.58;98623.13;5125776;28;20089;-70
2022/04/19 08:49:26;;;;;;;8.00;5.15;;;;;;;7.49;58.18;98605.09;5124987;28;20046;-70
2022/04/19 08:51:55;;;;;;;7.68;5.40;;;;;;;7.47;56.77;98617.50;5125526;28;20061;-70
2022/04/19 08:57:31;;;;;;;7.43;5.95;;;;;;;7.59;57.26;98610.72;5125291;28;20035;-70
2022/04/19 09:00:08;;;;;;;5.95;4.55;;;;;;;7.57;58.17;98605.53;5125322;28;20065;-69
2022/04/19 09:02:40;;;;;;;7.13;4.97;;;;;;;7.58;57.09;98609.00;5124237;28;20067;-70
2022/04/19 09:05:15;;;;;;;8.35;5.00;;;;;;;7.62;56.51;98611.38;5126864;28;20039;-69
2022/04/19 09:07:49;;;;;;;6.22;5.18;;;;;;;7.31;57.20;98559.47;5129016;28;20040;-70
2022/04/19 09:10:27;;;;;;;6.63;4.55;;;;;;;7.58;57.70;98609.00;5129143;28;20040;-70
2022/04/19 09:13:02;;;;;;;6.22;4.80;;;;;;;7.59;56.99;98594.88;5129008;28;20044;-70
2022/04/19 09:15:48;;;;;;;6.20;4.75;;;;;;;7.67;59.51;98606.72;5129167;28;20039;-70
2022/04/19 09:18:26;;;;;;;7.88;5.72;;;;;;;7.68;58.52;98603.16;5128821;28;20035;-70
2022/04/19 09:21:00;;;;;;;6.35;5.07;;;;;;;7.79;56.75;98602.53;5129060;28;20047;-70
2022/04/19 09:23:34;;;;;;;7.45;5.55;;;;;;;7.56;56.95;98542.31;5127877;28;20097;-70
2022/04/19 09:26:08;;;;;;;6.20;5.22;;;;;;;7.95;56.79;98595.47;5128845;28;20063;-69
2022/04/19 09:28:41;;;;;;;9.30;5.82;;;;;;;7.97;57.06;98598.88;5128577;27;20047;-70
2022/04/19 09:31:15;;;;;;;8.13;5.05;;;;;;;8.03;57.20;98595.88;5128798;28;20101;-70
2022/04/19 09:34:00;;;;;;;6.38;5.20;;;;;;;7.82;59.69;98548.75;5127670;28;20036;-69
2022/04/19 09:36:32;;;;;;;7.05;5.22;;;;;;;8.05;56.95;98597.59;5128727;28;20047;-70
2022/04/19 09:39:29;;;;;;;8.52;5.38;;;;;;;8.11;59.22;98591.97;5128692;28;20310;-69
2022/04/19 09:42:01;;;;;;;6.00;4.60;;;;;;;8.09;56.87;98585.91;5128263;28;20036;-70
2022/04/19 09:44:31;;;;;;;5.70;4.50;;;;;;;8.11;57.14;98591.97;5128414;28;20040;-70
2022/04/19 09:47:06;;;;;;;6.68;5.00;;;;;;;7.97;57.66;98598.03;5128346;28;20039;-70
2022/04/19 09:49:44;;;;;;;6.07;4.63;;;;;;;7.81;57.42;98595.41;5128011;28;20040;-70
2022/04/19 09:52:48;;;;;;;6.65;5.25;;;;;;;7.77;59.16;98598.28;5128110;28;20039;-69
2022/04/19 09:55:20;;;;;;;8.18;5.28;;;;;;;7.79;57.53;98591.16;5128296;28;20039;-70
2022/04/19 09:57:53;;;;;;;12.13;6.53;;;;;;;7.84;57.62;98600.50;5128294;28;20039;-70
2022/04/19 10:00:25;;;;;;;7.75;5.97;;;;;;;7.67;58.96;98604.06;5127867;28;20047;-70
2022/04/19 10:08:41;;;;;;;7.97;4.82;;;;;;;7.35;59.54;98597.06;5126940;28;20040;-70
2022/04/19 10:11:14;;;;;;;10.68;8.10;;;;;;;7.41;59.74;98594.09;5127890;28;20101;-70
2022/04/19 10:13:47;;;;;;;6.35;5.40;;;;;;;7.51;59.70;98597.09;5127677;28;20069;-70
2022/04/19 10:16:19;;;;;;;8.13;5.57;;;;;;;7.58;59.49;98598.47;5127553;28;20040;-70
2022/04/19 10:18:53;;;;;;;6.78;5.55;;;;;;;7.50;60.33;98598.03;5126616;28;20094;-70
2022/04/19 10:21:30;;;;;;;5.93;4.97;;;;;;;7.43;60.47;98594.03;5127684;28;20043;-70
2022/04/19 10:24:11;;;;;;;5.18;4.45;;;;;;;7.50;61.94;98596.25;5127325;28;20055;-70
2022/04/19 10:26:46;;;;;;;6.53;5.05;;;;;;;7.50;59.69;98596.25;5127517;28;20039;-70
2022/04/19 10:29:21;;;;;;;6.10;4.82;;;;;;;7.10;60.55;98544.81;5127219;28;20047;-69
2022/04/19 10:32:01;;;;;;;6.40;4.38;;;;;;;6.18;61.15;98419.78;5127225;28;20039;-70
2022/04/19 10:34:33;;;;;;;5.68;4.80;;;;;;;7.40;60.69;98586.28;5126869;28;20316;-70
2022/04/19 10:37:21;;;;;;;7.68;5.72;;;;;;;7.38;63.82;98587.22;5127649;28;20043;-70
2022/04/19 10:40:05;;;;;;;6.85;5.18;;;;;;;7.37;63.43;98592.56;5127199;28;20062;-70
2022/04/19 10:42:40;;;;;;;7.80;5.65;;;;;;;7.30;61.21;98596.44;5127574;28;20040;-71
2022/04/19 10:45:25;;;;;;;;;;;;;;;7.28;64.79;98591.25;5128059;28;20040;-70
2022/04/19 10:48:07;;;;;;;5.63;4.38;;;;;;;7.32;63.62;98599.84;5127107;28;19916;-70
2022/04/19 10:50:45;;;;;;;5.72;4.45;;;;;;;6.07;61.30;98388.78;5127612;28;20318;-70
2022/04/19 10:53:18;;;;;;;7.35;4.93;;;;;;;7.34;61.36;98601.50;5127545;28;20043;-70
2022/04/19 10:56:08;;;;;;;5.30;4.05;;;;;;;7.33;63.03;98606.84;5127430;28;20040;-70
2022/04/19 10:58:43;;;;;;;7.32;4.30;;;;;;;7.16;61.23;98605.09;5127215;28;20039;-70
2022/04/19 11:01:36;;;;;;;6.57;5.18;;;;;;;7.01;63.18;98606.75;5126802;28;20307;-70
2022/04/19 11:04:29;;;;;;;6.03;4.38;;;;;;;6.91;61.43;98608.16;5124420;28;20048;-70
2022/04/19 11:07:23;;;;;;;6.72;4.80;;;;;;;6.79;63.55;98610.53;5126694;28;20039;-70
2022/04/19 11:10:04;;;;;;;5.03;4.00;;;;;;;6.86;64.38;98609.31;5126604;28;20040;-70
2022/04/19 11:12:57;;;;;;;5.57;4.43;;;;;;;6.63;64.75;98563.09;5126612;28;20039;-71
2022/04/19 11:15:38;;;;;;;5.40;4.03;;;;;;;6.80;64.53;98615.75;5125623;28;20040;-70
2022/04/19 11:18:23;;;;;;;5.43;4.30;;;;;;;6.79;64.14;98610.53;5126378;28;20050;-70
2022/04/19 11:20:58;;;;;;;6.13;4.18;;;;;;;6.53;63.02;98588.19;5126698;28;20062;-70
2022/04/19 11:23:43;;;;;;;5.72;5.13;;;;;;;6.87;63.80;98611.03;5126370;27;20043;-69
2022/04/19 11:26:41;;;;;;;4.68;4.18;;;;;;;6.87;63.89;98608.41;5126305;28;20040;-70
2022/04/19 11:29:18;;;;;;;5.88;4.03;;;;;;;6.57;62.46;98564.25;5125840;28;20036;-70
2022/04/19 11:32:08;;;;;;;5.45;4.28;;;;;;;6.84;64.04;98617.31;5126511;28;20165;-70
2022/04/19 11:34:39;;;;;;;4.50;3.65;;;;;;;6.47;61.76;98562.16;5126111;28;20057;-70
2022/04/19 11:37:10;;;;;;;4.78;3.75;;;;;;;6.72;62.21;98617.91;5126399;28;20306;-70
2022/04/19 11:48:32;;;;;;;6.32;4.50;;;;;;;6.79;62.14;98600.00;5125877;27;20039;-70
2022/04/19 11:51:09;;;;;;;6.80;5.15;;;;;;;6.81;64.02;98621.88;5126044;28;20047;-71
2022/04/19 11:53:41;;;;;;;6.10;4.95;;;;;;;6.70;62.69;98617.97;5125674;28;20044;-70
2022/04/19 11:56:16;;;;;;;6.13;5.43;;;;;;;5.33;62.07;98401.31;5125926;28;20211;-70
2022/04/19 11:58:51;;;;;;;6.05;4.40;;;;;;;6.60;63.19;98644.84;5126230;28;20047;-70
2022/04/19 12:01:23;;;;;;;5.93;4.65;;;;;;;6.22;63.99;98567.81;5126022;28;20047;-69
2022/04/19 12:03:57;;;;;;;5.78;4.93;;;;;;;5.86;63.23;98526.63;5126116;28;20047;-69
2022/04/19 12:06:30;;;;;;;5.93;5.15;;;;;;;5.62;64.08;98485.75;5126176;28;20039;-70
2022/04/19 12:09:02;;;;;;;6.00;5.10;;;;;;;5.20;63.33;98436.13;5125737;28;20036;-70
2022/04/19 12:11:37;;;;;;;5.47;4.60;;;;;;;6.33;63.12;98611.09;5125779;28;20046;-70
2022/04/19 12:14:09;;;;;;;4.70;4.07;;;;;;;6.32;62.47;98606.75;5125314;28;20039;-70
2022/04/19 12:16:42;;;;;;;5.88;4.57;;;;;;;5.98;62.97;98562.84;5124638;28;20043;-70
2022/04/19 12:19:14;;;;;;;5.95;4.60;;;;;;;6.16;63.28;98618.97;5125498;28;20211;-70
2022/04/19 12:21:48;;;;;;;5.10;4.43;;;;;;;6.18;63.22;98619.75;5125460;28;20039;-70
2022/04/19 12:24:22;;;;;;;7.38;4.93;;;;;;;6.17;63.35;98620.66;5125230;28;20039;-70
2022/04/19 12:27:06;;;;;;;5.75;4.68;;;;;;;6.01;64.63;98615.31;5125543;28;20035;-70
2022/04/19 12:29:54;;;;;;;4.25;3.58;;;;;;;6.03;63.05;98618.72;5125571;28;20141;-70
2022/04/19 12:32:28;;;;;;;4.82;4.05;;;;;;;6.06;62.94;98622.97;5125281;28;20058;-70
2022/04/19 12:35:08;;;;;;;5.07;3.97;;;;;;;6.10;63.83;98609.59;5124671;28;20207;-70
2022/04/19 12:37:41;;;;;;;5.25;4.43;;;;;;;6.11;63.68;98615.72;5125419;28;20043;-70
2022/04/19 12:40:14;;;;;;;5.28;4.78;;;;;;;6.15;64.35;98612.00;5128127;28;20281;-70
2022/04/19 12:42:52;;;;;;;5.95;5.20;;;;;;;6.18;65.36;98616.25;5129717;28;20047;-70
2022/04/19 12:45:31;;;;;;;6.10;4.93;;;;;;;6.11;65.70;98623.59;5129811;28;20046;-70
2022/04/19 12:48:07;;;;;;;6.90;5.82;;;;;;;6.18;63.91;98645.19;5128808;28;20039;-69
2022/04/19 12:50:39;;;;;;;7.70;6.10;;;;;;;6.13;63.91;98623.53;5111506;28;20303;-70
2022/04/19 12:53:21;;;;;;;6.25;4.40;;;;;;;5.85;65.83;98564.38;5129722;27;20084;-69